Time;durP1;ratioP1;P1;durP2;ratioP2;P2;SDS_P1;SDS_P2;PMS_P1;PMS_P2;Temp;Humidity;BMP_temperature;BMP_pressure;BME280_temperature;BME280_humidity;BME280_pressure;Samples;Min_cycle;Max_cycle;Signal;HPM_P1;HPM_P2
2023/12/02 00:00:24;;;;;;;13.25;7.88;;;;;;;-1.80;99.28;100254.03;6113012;23;20112;-81
2023/12/02 00:02:51;;;;;;;14.73;7.85;;;;;;;-1.85;99.01;100248.75;6117752;23;20025;-82
2023/12/02 00:05:18;;;;;;;15.23;7.85;;;;;;;-1.95;100.00;100250.13;6092926;23;20739;-82
2023/12/02 00:07:44;;;;;;;14.00;6.80;;;;;;;-1.91;100.00;100249.41;6093582;23;20052;-81
2023/12/02 00:10:14;;;;;;;12.40;7.05;;;;;;;-1.90;100.00;100247.72;6117148;23;20036;-80
2023/12/02 00:12:41;;;;;;;9.90;5.95;;;;;;;-1.90;99.66;100248.59;6092169;23;20030;-81
2023/12/02 00:15:08;;;;;;;10.05;6.03;;;;;;;-2.09;99.84;100256.44;6116757;23;20059;-82
2023/12/02 00:17:37;;;;;;;13.25;5.97;;;;;;;-2.00;100.00;100255.06;6091652;23;20124;-82
2023/12/02 00:20:05;;;;;;;13.95;6.72;;;;;;;-2.02;100.00;100251.59;6117312;23;20108;-82
2023/12/02 00:22:33;;;;;;;12.40;6.30;;;;;;;-1.87;100.00;100246.13;6091378;23;20025;-81
2023/12/02 00:24:59;;;;;;;14.13;7.03;;;;;;;-1.77;99.90;100255.03;6093785;23;20037;-81
2023/12/02 00:27:26;;;;;;;12.50;7.18;;;;;;;-1.73;99.78;100248.31;6118642;23;20021;-81
2023/12/02 00:29:52;;;;;;;12.27;6.47;;;;;;;-1.71;99.21;100244.97;6091697;23;20025;-79
2023/12/02 00:32:19;;;;;;;17.02;8.52;;;;;;;-1.71;99.19;100252.66;6140188;23;20025;-82
2023/12/02 00:34:46;;;;;;;18.77;9.00;;;;;;;-1.85;99.22;100254.75;6116737;23;20654;-82
2023/12/02 00:37:13;;;;;;;17.38;8.93;;;;;;;-1.98;100.00;100250.03;6115532;23;20025;-82
2023/12/02 00:39:43;;;;;;;16.58;9.27;;;;;;;-2.15;100.00;100246.84;6090220;23;20746;-82
2023/12/02 00:42:10;;;;;;;19.17;9.38;;;;;;;-2.24;100.00;100249.06;6116542;23;20108;-80
2023/12/02 00:44:37;;;;;;;19.25;9.70;;;;;;;-2.16;100.00;100263.06;6092268;23;20525;-82
2023/12/02 00:47:04;;;;;;;18.75;9.40;;;;;;;-2.10;100.00;100253.03;6140746;23;20017;-80
2023/12/02 00:49:30;;;;;;;21.52;10.02;;;;;;;-1.97;100.00;100256.88;6090898;23;20108;-83
2023/12/02 00:51:57;;;;;;;29.83;10.88;;;;;;;-1.87;100.00;100252.94;6117045;23;20064;-82
2023/12/02 00:54:24;;;;;;;18.95;10.23;;;;;;;-1.90;100.00;100256.28;6116547;23;20052;-80
2023/12/02 00:56:50;;;;;;;19.10;11.10;;;;;;;-1.89;100.00;100255.47;6117300;23;20031;-80
2023/12/02 00:59:17;;;;;;;18.75;9.60;;;;;;;-1.85;100.00;100252.19;6116350;23;20104;-81
2023/12/02 01:01:43;;;;;;;21.90;11.32;;;;;;;-1.91;100.00;100257.09;6113183;23;20053;-80
2023/12/02 01:04:10;;;;;;;22.85;10.77;;;;;;;-1.93;100.00;100261.31;6118151;23;20513;-81
2023/12/02 01:06:36;;;;;;;19.85;10.85;;;;;;;-1.91;100.00;100257.09;6091709;23;20013;-81
2023/12/02 01:09:03;;;;;;;19.83;10.98;;;;;;;-1.90;100.00;100263.13;6117968;23;20080;-80
2023/12/02 01:11:30;;;;;;;24.50;10.18;;;;;;;-1.89;100.00;100260.59;6120740;23;20056;-81
2023/12/02 01:13:57;;;;;;;22.25;10.43;;;;;;;-1.90;100.00;100261.41;6120664;23;20053;-81
2023/12/02 01:16:24;;;;;;;19.92;10.25;;;;;;;-1.97;100.00;100263.72;6096415;23;20084;-82
2023/12/02 01:18:51;;;;;;;24.10;10.38;;;;;;;-2.07;100.00;100262.53;6122266;23;20021;-80
2023/12/02 01:21:17;;;;;;;18.10;9.93;;;;;;;-2.08;100.00;100268.47;6119070;23;20727;-82
2023/12/02 01:23:44;;;;;;;22.95;11.10;;;;;;;-2.08;100.00;100273.59;6094303;23;20022;-81
2023/12/02 01:26:13;;;;;;;24.00;11.73;;;;;;;-2.18;100.00;100269.81;6122246;23;20025;-80
2023/12/02 01:28:40;;;;;;;19.58;9.95;;;;;;;-2.16;100.00;100275.88;6095790;23;20021;-81
2023/12/02 01:31:09;;;;;;;21.70;10.70;;;;;;;-2.11;100.00;100274.34;6142971;23;20036;-80
2023/12/02 01:33:36;;;;;;;21.92;11.60;;;;;;;-2.15;100.00;100275.06;6121731;23;20025;-80
2023/12/02 01:36:02;;;;;;;21.58;11.43;;;;;;;-2.12;100.00;100277.72;6145818;23;20030;-80
2023/12/02 01:38:29;;;;;;;21.30;11.43;;;;;;;-2.12;100.00;100282.84;6095902;23;20523;-81
2023/12/02 01:40:55;;;;;;;23.55;11.20;;;;;;;-2.11;100.00;100283.72;6118308;23;20486;-82
2023/12/02 01:43:27;;;;;;;24.00;12.45;;;;;;;-2.23;100.00;100282.47;6120424;23;20033;-80
2023/12/02 01:45:55;;;;;;;18.98;10.55;;;;;;;-2.47;100.00;100287.56;6120368;23;20393;-81
2023/12/02 01:48:26;;;;;;;26.55;13.15;;;;;;;-2.34;100.00;100287.19;6096268;23;20790;-81
2023/12/02 01:50:53;;;;;;;23.48;11.15;;;;;;;-2.26;100.00;100287.47;6094976;23;20056;-81
2023/12/02 01:53:20;;;;;;;24.08;12.60;;;;;;;-2.30;100.00;100295.88;6119668;23;20443;-81
2023/12/02 01:55:47;;;;;;;24.00;11.10;;;;;;;-2.44;100.00;100290.22;6096271;23;20026;-82
2023/12/02 01:58:14;;;;;;;25.65;14.43;;;;;;;-2.46;100.00;100289.31;6120144;23;20467;-81
2023/12/02 02:00:40;;;;;;;31.00;13.95;;;;;;;-2.33;100.00;100294.06;6119467;23;20028;-80
2023/12/02 02:03:07;;;;;;;23.20;13.50;;;;;;;-2.31;100.00;100298.38;6092451;23;20115;-81
2023/12/02 02:05:36;;;;;;;27.27;14.30;;;;;;;-2.31;100.00;100289.00;6096793;23;20021;-81
2023/12/02 02:08:03;;;;;;;29.08;13.35;;;;;;;-2.30;100.00;100295.00;6098075;23;20108;-80
2023/12/02 02:10:31;;;;;;;29.10;14.48;;;;;;;-2.27;100.00;100290.84;6096915;23;20021;-82
2023/12/02 02:12:58;;;;;;;28.88;14.65;;;;;;;-2.31;100.00;100291.56;6120879;23;20025;-80
2023/12/02 02:15:25;;;;;;;29.27;13.43;;;;;;;-2.38;100.00;100287.03;6121672;23;20052;-82
2023/12/02 02:17:51;;;;;;;27.25;13.65;;;;;;;-2.40;100.00;100292.09;6122386;23;20104;-81
2023/12/02 02:20:23;;;;;;;31.27;14.40;;;;;;;-2.42;100.00;100285.19;6120918;23;20053;-82
2023/12/02 02:22:49;;;;;;;30.90;14.52;;;;;;;-2.44;100.00;100289.34;6097118;23;20058;-81
2023/12/02 02:25:16;;;;;;;32.42;14.73;;;;;;;-2.40;100.00;100292.09;6096705;23;20326;-82
2023/12/02 02:27:43;;;;;;;33.75;13.68;;;;;;;-2.46;100.00;100291.88;6095775;23;20045;-80
2023/12/02 02:30:10;;;;;;;33.28;16.00;;;;;;;-2.39;100.00;100280.16;6093984;23;20048;-81
2023/12/02 02:32:37;;;;;;;29.70;14.23;;;;;;;-2.35;100.00;100282.91;6092629;23;20068;-82
2023/12/02 02:35:04;;;;;;;28.25;14.25;;;;;;;-2.31;100.00;100272.75;6117671;23;20068;-80
2023/12/02 02:37:30;;;;;;;28.85;15.15;;;;;;;-2.26;100.00;100291.75;6093423;23;20260;-81
2023/12/02 02:39:57;;;;;;;29.95;14.10;;;;;;;-2.23;100.00;100282.47;6118922;23;20462;-81
2023/12/02 02:42:23;;;;;;;29.38;14.07;;;;;;;-2.20;100.00;100282.56;6093021;23;20021;-81
2023/12/02 02:44:50;;;;;;;27.50;14.25;;;;;;;-2.12;100.00;100280.28;6119556;23;20022;-79
2023/12/02 02:47:16;;;;;;;25.08;13.48;;;;;;;-2.16;100.00;100281.00;6118123;23;20075;-81
2023/12/02 02:49:43;;;;;;;29.23;15.00;;;;;;;-2.21;100.00;100285.94;6094891;23;20021;-80
2023/12/02 02:52:10;;;;;;;29.45;13.68;;;;;;;-2.16;100.00;100281.88;6094105;23;20025;-80
2023/12/02 02:54:36;;;;;;;30.00;13.05;;;;;;;-2.28;100.00;100277.97;6119576;23;20025;-80
2023/12/02 02:57:03;;;;;;;31.55;15.10;;;;;;;-2.21;100.00;100285.94;6118331;23;20057;-80
2023/12/02 02:59:29;;;;;;;29.38;13.82;;;;;;;-2.23;100.00;100282.47;6093380;23;20027;-80
2023/12/02 03:01:56;;;;;;;26.33;12.18;;;;;;;-2.35;100.00;100282.00;6093643;23;20128;-81
2023/12/02 03:04:23;;;;;;;31.95;15.50;;;;;;;-2.38;100.00;100282.75;6117737;23;20037;-82
2023/12/02 03:06:52;;;;;;;28.67;13.82;;;;;;;-2.39;100.00;100281.00;6119014;23;20025;-81
2023/12/02 03:09:19;;;;;;;27.80;12.80;;;;;;;-2.40;100.00;100286.09;6118471;23;20211;-79
2023/12/02 03:11:48;;;;;;;30.27;14.60;;;;;;;-2.51;100.00;100289.13;6118350;23;20140;-80
2023/12/02 03:14:15;;;;;;;26.63;13.93;;;;;;;-2.47;100.00;100289.25;6118882;23;20033;-80
2023/12/02 03:16:42;;;;;;;30.35;13.93;;;;;;;-2.45;100.00;100290.16;6118746;23;20064;-80
2023/12/02 03:19:08;;;;;;;27.27;14.27;;;;;;;-2.41;100.00;100290.34;6115768;23;20017;-80
2023/12/02 03:21:35;;;;;;;28.45;13.20;;;;;;;-2.26;100.00;100284.91;6119087;23;20104;-80
2023/12/02 03:24:01;;;;;;;23.05;13.18;;;;;;;-2.30;100.00;100289.88;6118349;23;20032;-80
2023/12/02 03:26:28;;;;;;;27.52;13.50;;;;;;;-2.36;100.00;100285.38;6118382;23;20025;-81
2023/12/02 03:28:55;;;;;;;26.27;13.30;;;;;;;-2.40;100.00;100286.09;6119717;23;20025;-80
2023/12/02 03:31:22;;;;;;;31.42;14.65;;;;;;;-2.41;100.00;100280.09;6093526;23;20499;-80
2023/12/02 03:33:48;;;;;;;28.75;13.98;;;;;;;-2.35;100.00;100285.47;6119356;23;20049;-80
2023/12/02 03:36:15;;;;;;;29.67;15.20;;;;;;;-2.36;100.00;100280.25;6096250;23;20079;-81
2023/12/02 03:38:42;;;;;;;25.58;14.75;;;;;;;-2.29;100.00;100278.78;6122006;23;20017;-80
2023/12/02 03:41:09;;;;;;;29.27;14.27;;;;;;;-2.36;100.00;100283.72;6095707;23;20515;-80
2023/12/02 03:43:36;;;;;;;26.55;13.98;;;;;;;-2.40;100.00;100276.72;6120766;23;20466;-80
2023/12/02 03:46:03;;;;;;;28.15;13.45;;;;;;;-2.50;100.00;100279.75;6097170;23;20029;-81
2023/12/02 03:48:33;;;;;;;34.67;14.82;;;;;;;-2.60;100.00;100275.94;6119779;23;20025;-81
2023/12/02 03:51:00;;;;;;;27.83;14.35;;;;;;;-2.63;100.00;100278.41;6119610;23;20025;-80
2023/12/02 03:53:30;;;;;;;32.08;14.95;;;;;;;-2.63;100.00;100278.41;6095857;23;20522;-81
2023/12/02 03:55:57;;;;;;;27.27;13.90;;;;;;;-2.67;100.00;100279.97;6096901;23;20538;-80
2023/12/02 03:58:24;;;;;;;36.25;15.98;;;;;;;-2.59;100.00;100282.84;6095983;23;20029;-82
2023/12/02 04:00:51;;;;;;;28.80;14.68;;;;;;;-2.58;100.00;100279.47;6121749;23;20451;-82
2023/12/02 04:03:19;;;;;;;31.45;14.52;;;;;;;-2.53;100.00;100280.50;6096648;23;20029;-80
2023/12/02 04:05:48;;;;;;;33.67;15.05;;;;;;;-2.53;100.00;100282.19;6121441;23;20027;-80
2023/12/02 04:08:15;;;;;;;33.50;16.42;;;;;;;-2.51;100.00;100280.56;6096295;23;20223;-80
2023/12/02 04:10:41;;;;;;;33.13;14.15;;;;;;;-2.49;100.00;100278.91;6119756;23;20759;-80
2023/12/02 04:13:08;;;;;;;39.42;16.85;;;;;;;-2.48;100.00;100282.38;6120927;23;20120;-80
2023/12/02 04:15:35;;;;;;;35.13;15.77;;;;;;;-2.57;100.00;100281.22;6095406;23;20025;-80
2023/12/02 04:18:02;;;;;;;35.72;14.52;;;;;;;-2.53;100.00;100284.75;6121859;23;20044;-81
2023/12/02 04:20:29;;;;;;;30.20;15.70;;;;;;;-2.49;100.00;100286.59;6096532;23;20029;-80
2023/12/02 04:22:55;;;;;;;32.50;15.73;;;;;;;-2.48;100.00;100279.81;6092149;23;20088;-80
2023/12/02 04:25:25;;;;;;;34.92;16.58;;;;;;;-2.48;100.00;100290.91;6096962;23;20785;-80
2023/12/02 04:27:51;;;;;;;26.50;14.20;;;;;;;-2.40;100.00;100292.09;6119082;23;20426;-80
2023/12/02 04:30:21;;;;;;;31.17;15.25;;;;;;;-2.41;100.00;100294.59;6096712;23;20573;-81
2023/12/02 04:32:47;;;;;;;34.83;16.63;;;;;;;-2.41;100.00;100299.72;6094701;23;20029;-80
2023/12/02 04:35:14;;;;;;;37.72;16.98;;;;;;;-2.40;100.00;100296.34;6121571;23;20025;-80
2023/12/02 04:37:41;;;;;;;34.08;16.40;;;;;;;-2.42;100.00;100305.69;6094009;23;20029;-81
2023/12/02 04:40:11;;;;;;;35.35;15.35;;;;;;;-2.34;100.00;100304.28;6120578;23;20608;-82
2023/12/02 04:42:42;;;;;;;34.70;16.20;;;;;;;-2.35;100.00;100299.94;6117090;23;20607;-81
2023/12/02 04:45:09;;;;;;;34.33;15.60;;;;;;;-2.35;100.00;100303.41;6096187;23;20025;-81
2023/12/02 04:47:37;;;;;;;34.45;16.80;;;;;;;-2.32;100.00;100307.78;6120621;23;20108;-80
2023/12/02 04:50:07;;;;;;;42.13;16.50;;;;;;;-2.42;100.00;100298.00;6095794;23;20029;-80
2023/12/02 04:52:41;;;;;;;35.90;15.82;;;;;;;-2.45;100.00;100293.63;6118948;23;20021;-80
2023/12/02 04:55:10;;;;;;;29.40;14.20;;;;;;;-2.46;100.00;100307.25;6123101;23;20024;-81
2023/12/02 04:57:38;;;;;;;33.80;15.52;;;;;;;-2.43;100.00;100297.09;6096256;23;20075;-81
2023/12/02 05:00:06;;;;;;;33.42;15.48;;;;;;;-2.41;100.00;100303.16;6120474;23;20113;-81
2023/12/02 05:02:32;;;;;;;29.45;14.25;;;;;;;-2.37;100.00;100305.03;6118107;23;20022;-81
2023/12/02 05:04:59;;;;;;;30.15;15.70;;;;;;;-2.39;100.00;100304.09;6120964;23;20022;-81
2023/12/02 05:07:26;;;;;;;31.60;14.18;;;;;;;-2.35;100.00;100300.84;6119441;23;20029;-80
2023/12/02 05:09:52;;;;;;;31.98;15.60;;;;;;;-2.36;100.00;100311.91;6119865;23;20017;-80
2023/12/02 05:12:19;;;;;;;25.98;13.10;;;;;;;-2.40;100.00;100310.06;6095822;23;20057;-80
2023/12/02 05:14:45;;;;;;;35.30;16.02;;;;;;;-2.39;100.00;100316.91;6094896;23;20032;-80
2023/12/02 05:17:12;;;;;;;36.20;16.45;;;;;;;-2.44;100.00;100309.84;6120413;23;20057;-81
2023/12/02 05:19:38;;;;;;;36.17;16.08;;;;;;;-2.38;100.00;100317.78;6119939;23;20100;-80
2023/12/02 05:22:05;;;;;;;37.50;16.80;;;;;;;-2.37;100.00;100314.41;6119618;23;20060;-80
2023/12/02 05:24:32;;;;;;;30.67;16.90;;;;;;;-2.40;100.00;100309.16;6091853;23;20017;-80
2023/12/02 05:26:59;;;;;;;36.85;16.63;;;;;;;-2.45;100.00;100313.22;6092596;23;20021;-81
2023/12/02 05:29:25;;;;;;;40.20;16.75;;;;;;;-2.45;100.00;100311.56;6118617;23;20025;-81
2023/12/02 05:31:52;;;;;;;39.42;15.63;;;;;;;-2.58;100.00;100307.66;6094244;23;20030;-80
2023/12/02 05:34:20;;;;;;;30.02;16.65;;;;;;;-2.55;100.00;100310.31;6143869;23;20053;-80
2023/12/02 05:36:47;;;;;;;39.13;17.95;;;;;;;-2.48;100.00;100319.13;6119711;23;20021;-80
2023/12/02 05:39:15;;;;;;;36.47;16.27;;;;;;;-2.45;100.00;100313.22;6119769;23;20029;-80
2023/12/02 05:41:42;;;;;;;36.13;16.10;;;;;;;-2.45;100.00;100311.56;6118804;23;20017;-81
2023/12/02 05:44:10;;;;;;;37.15;19.05;;;;;;;-2.42;100.00;100316.78;6095374;23;20068;-80
2023/12/02 05:46:38;;;;;;;38.60;18.17;;;;;;;-2.51;100.00;100314.75;6094991;23;20029;-80
2023/12/02 05:49:05;;;;;;;37.42;16.33;;;;;;;-2.53;100.00;100315.50;6096738;23;20040;-79
2023/12/02 05:51:31;;;;;;;43.92;18.73;;;;;;;-2.53;100.00;100310.38;6119169;23;20029;-80
2023/12/02 05:53:58;;;;;;;38.00;18.67;;;;;;;-2.45;100.00;100320.91;6094594;23;20022;-80
2023/12/02 05:56:25;;;;;;;34.65;17.83;;;;;;;-2.46;100.00;100317.50;6121548;23;20497;-82
2023/12/02 05:58:51;;;;;;;36.30;18.33;;;;;;;-2.48;100.00;100320.81;6120814;23;20026;-80
2023/12/02 06:01:24;;;;;;;35.65;17.40;;;;;;;-2.47;100.00;100325.13;6120659;23;20116;-81
2023/12/02 06:03:51;;;;;;;37.28;18.67;;;;;;;-2.50;100.00;100325.88;6084242;23;20082;-80
2023/12/02 06:06:18;;;;;;;35.22;17.75;;;;;;;-2.53;100.00;100320.63;6087473;23;20033;-80
2023/12/02 06:08:45;;;;;;;37.00;19.92;;;;;;;-2.53;100.00;100321.53;6086593;23;20018;-83
2023/12/02 06:11:12;;;;;;;36.83;17.90;;;;;;;-2.55;100.00;100330.81;6061965;23;20081;-80
2023/12/02 06:13:38;;;;;;;36.78;17.35;;;;;;;-2.53;100.00;100336.00;6084037;23;20030;-81
2023/12/02 06:16:08;;;;;;;41.80;18.10;;;;;;;-2.59;100.00;100328.97;6061984;23;20385;-80
2023/12/02 06:18:34;;;;;;;41.53;18.30;;;;;;;-2.61;100.00;100328.00;6061164;23;20026;-80
2023/12/02 06:21:01;;;;;;;35.33;17.80;;;;;;;-2.54;100.00;100334.28;6084007;23;20033;-81
2023/12/02 06:23:28;;;;;;;34.75;16.90;;;;;;;-2.46;100.00;100337.09;6084303;23;20628;-80
2023/12/02 06:25:54;;;;;;;44.60;19.38;;;;;;;-2.41;100.00;100331.38;6061761;23;20065;-80
2023/12/02 06:28:21;;;;;;;36.53;18.40;;;;;;;-2.36;100.00;100328.97;6061954;23;20022;-80
2023/12/02 06:30:48;;;;;;;32.50;15.65;;;;;;;-2.33;100.00;100334.22;6060928;23;20396;-80
2023/12/02 06:33:18;;;;;;;35.85;17.85;;;;;;;-2.30;100.00;100336.88;6062076;23;20030;-80
2023/12/02 06:35:47;;;;;;;39.20;17.30;;;;;;;-2.31;100.00;100334.28;6061938;23;20418;-81
2023/12/02 06:38:17;;;;;;;38.38;17.52;;;;;;;-2.30;100.00;100342.03;6061127;23;20114;-81
2023/12/02 06:40:44;;;;;;;34.50;17.75;;;;;;;-2.31;100.00;100340.25;6060637;23;20029;-81
2023/12/02 06:43:12;;;;;;;31.70;18.23;;;;;;;-2.35;100.00;100341.88;6084948;23;20105;-80
2023/12/02 06:45:40;;;;;;;38.72;15.68;;;;;;;-2.38;100.00;100344.28;6060424;23;20532;-81
2023/12/02 06:48:06;;;;;;;36.80;18.35;;;;;;;-2.37;100.00;100350.31;6059912;23;20023;-80
2023/12/02 06:50:33;;;;;;;33.53;16.67;;;;;;;-2.43;100.00;100357.75;6084526;23;20050;-80
2023/12/02 06:53:00;;;;;;;42.80;18.83;;;;;;;-2.46;100.00;100353.38;6038238;23;20073;-80
2023/12/02 06:55:31;;;;;;;35.20;16.90;;;;;;;-2.45;100.00;100350.00;6086735;23;20022;-79
2023/12/02 06:58:03;;;;;;;33.17;15.38;;;;;;;-2.45;100.00;100355.13;6086207;23;20064;-79
2023/12/02 07:00:29;;;;;;;33.53;17.75;;;;;;;-2.53;100.00;100356.50;6060986;23;20015;-81
2023/12/02 07:02:56;;;;;;;41.28;17.13;;;;;;;-2.50;100.00;100360.06;6062061;23;20066;-80
2023/12/02 07:05:22;;;;;;;39.03;17.65;;;;;;;-2.50;100.00;100369.47;6087955;23;20097;-82
2023/12/02 07:07:49;;;;;;;35.28;17.88;;;;;;;-2.56;100.00;100369.22;6091228;23;20196;-81
2023/12/02 07:10:15;;;;;;;39.85;18.63;;;;;;;-2.51;100.00;100372.84;6089465;23;20022;-80
2023/12/02 07:12:42;;;;;;;39.33;18.85;;;;;;;-2.49;100.00;100376.31;6066570;23;20690;-80
2023/12/02 07:15:09;;;;;;;30.20;17.27;;;;;;;-2.41;100.00;100377.50;6090917;23;20174;-81
2023/12/02 07:17:36;;;;;;;31.13;16.77;;;;;;;-2.47;100.00;100376.41;6115725;23;20029;-81
2023/12/02 07:20:03;;;;;;;39.08;20.10;;;;;;;-2.48;100.00;100374.66;6090531;23;20057;-81
2023/12/02 07:22:30;;;;;;;40.20;17.30;;;;;;;-2.53;100.00;100380.47;6086388;23;20026;-81
2023/12/02 07:24:57;;;;;;;36.15;17.20;;;;;;;-2.57;100.00;100382.84;6090726;23;20030;-80
2023/12/02 07:27:24;;;;;;;40.33;17.63;;;;;;;-2.53;100.00;100388.16;6090790;23;20018;-81
2023/12/02 07:29:50;;;;;;;41.28;18.70;;;;;;;-2.53;100.00;100384.69;6065721;23;20022;-80
2023/12/02 07:32:17;;;;;;;43.13;17.85;;;;;;;-2.48;100.00;100396.00;6089325;23;20121;-79
2023/12/02 07:34:44;;;;;;;36.30;15.90;;;;;;;-2.48;100.00;100393.44;6065725;23;20028;-80
2023/12/02 07:37:10;;;;;;;34.95;17.70;;;;;;;-2.48;100.00;100401.13;6090769;23;20116;-81
2023/12/02 07:39:36;;;;;;;44.72;19.48;;;;;;;-2.44;100.00;100399.56;6090223;23;20454;-82
2023/12/02 07:42:02;;;;;;;35.50;16.33;;;;;;;-2.45;100.00;100395.25;6090285;23;20093;-80
2023/12/02 07:44:29;;;;;;;34.17;17.90;;;;;;;-2.40;100.00;100401.44;6090028;23;20047;-80
2023/12/02 07:46:55;;;;;;;35.17;16.73;;;;;;;-2.38;100.00;100397.25;6090539;23;20097;-80
2023/12/02 07:49:22;;;;;;;37.38;19.40;;;;;;;-2.35;100.00;100402.50;6090763;23;20562;-80
2023/12/02 07:51:48;;;;;;;34.70;17.95;;;;;;;-2.29;100.00;100402.75;6116047;23;20032;-80
2023/12/02 07:54:15;;;;;;;37.03;16.73;;;;;;;-2.33;100.00;100403.44;6115265;23;20021;-81
2023/12/02 07:56:42;;;;;;;36.28;16.92;;;;;;;-2.33;100.00;100413.69;6089552;23;20420;-80
2023/12/02 07:59:08;;;;;;;35.35;16.65;;;;;;;-2.25;100.00;100419.13;6090082;23;20070;-80
2023/12/02 08:01:37;;;;;;;35.95;16.00;;;;;;;-2.30;100.00;100423.19;6089128;23;20112;-82
2023/12/02 08:04:04;;;;;;;35.13;17.48;;;;;;;-2.38;100.00;100415.22;6097215;23;20064;-79
2023/12/02 08:06:31;;;;;;;31.80;15.77;;;;;;;-2.35;100.00;100423.91;6090648;23;20376;-80
2023/12/02 08:08:58;;;;;;;35.67;16.05;;;;;;;-2.32;100.00;100423.16;6114915;23;20101;-82
2023/12/02 08:11:25;;;;;;;40.05;17.67;;;;;;;-2.32;100.00;100425.72;6089367;23;20029;-82
2023/12/02 08:13:51;;;;;;;35.67;17.23;;;;;;;-2.28;100.00;100422.44;6114407;23;20092;-81
2023/12/02 08:16:18;;;;;;;35.33;17.75;;;;;;;-2.26;100.00;100423.38;6114734;23;20026;-80
2023/12/02 08:18:44;;;;;;;37.30;17.75;;;;;;;-2.36;100.00;100426.38;6111477;23;20018;-80
2023/12/02 08:21:12;;;;;;;34.85;16.60;;;;;;;-2.34;100.00;100435.03;6114027;23;20452;-80
2023/12/02 08:23:39;;;;;;;35.40;16.63;;;;;;;-2.24;100.00;100436.25;6116304;23;20029;-80
2023/12/02 08:26:06;;;;;;;34.97;16.75;;;;;;;-2.21;100.00;100434.69;6115294;23;20340;-81
2023/12/02 08:28:33;;;;;;;39.17;18.02;;;;;;;-2.17;100.00;100446.81;6115519;23;20538;-81
2023/12/02 08:30:59;;;;;;;41.60;18.85;;;;;;;-2.14;100.00;100440.91;6090486;23;20490;-82
2023/12/02 08:33:26;;;;;;;38.38;17.10;;;;;;;-2.11;100.00;100442.72;6115893;23;20033;-82
2023/12/02 08:35:53;;;;;;;38.05;16.27;;;;;;;-2.16;100.00;100442.56;6090969;23;20025;-82
2023/12/02 08:38:20;;;;;;;30.88;16.48;;;;;;;-2.14;100.00;100452.88;6092719;23;20029;-82
2023/12/02 08:40:49;;;;;;;37.63;16.80;;;;;;;-2.16;100.00;100458.81;6092854;23;20056;-82
2023/12/02 08:43:15;;;;;;;39.60;17.60;;;;;;;-2.17;100.00;100458.75;6116238;23;20032;-81
2023/12/02 08:45:42;;;;;;;39.50;17.52;;;;;;;-2.08;100.00;100456.56;6093209;23;20128;-82
2023/12/02 08:48:08;;;;;;;32.38;16.05;;;;;;;-2.02;100.00;100451.66;6094461;23;20044;-82
2023/12/02 08:50:35;;;;;;;36.65;19.25;;;;;;;-1.97;100.00;100446.69;6114766;23;20590;-82
2023/12/02 08:53:03;;;;;;;33.67;17.60;;;;;;;-2.02;100.00;100443.97;6116519;23;20030;-82
2023/12/02 08:55:33;;;;;;;37.28;17.70;;;;;;;-1.98;100.00;100449.22;6090288;23;20224;-82
2023/12/02 08:58:06;;;;;;;36.45;17.60;;;;;;;-1.97;100.00;100456.09;6091465;23;20026;-81
2023/12/02 09:00:33;;;;;;;41.50;17.23;;;;;;;-1.88;100.00;100456.44;6088796;23;20018;-81
2023/12/02 09:03:00;;;;;;;35.60;16.25;;;;;;;-1.86;100.00;100459.97;6116769;23;20561;-81
2023/12/02 09:05:28;;;;;;;36.35;16.05;;;;;;;-1.87;100.00;100461.63;6094066;23;20108;-82
2023/12/02 09:08:00;;;;;;;36.63;16.73;;;;;;;-1.83;100.00;100462.63;6115455;23;20021;-82
2023/12/02 09:10:27;;;;;;;36.05;17.60;;;;;;;-1.75;100.00;100463.78;6090326;23;20448;-80
2023/12/02 09:12:57;;;;;;;43.53;17.77;;;;;;;-1.77;100.00;100468.00;6091580;23;20518;-82
2023/12/02 09:15:22;;;;;;;39.45;18.45;;;;;;;-1.80;100.00;100470.44;6093464;23;20077;-83
2023/12/02 09:18:14;;;;;;;37.38;16.20;;;;;;;-1.78;100.00;100471.38;6115753;23;20025;-80
2023/12/02 09:20:53;;;;;;;35.47;15.63;;;;;;;-1.74;100.00;100468.09;6067118;23;20528;-81
2023/12/02 09:23:21;;;;;;;35.72;16.13;;;;;;;-1.67;100.00;100475.25;6093599;23;20032;-83
2023/12/02 09:25:50;;;;;;;37.28;16.05;;;;;;;-1.63;100.00;100476.22;6092996;23;20104;-81
2023/12/02 09:28:20;;;;;;;36.83;17.30;;;;;;;-1.54;100.00;100475.69;6116160;23;20101;-82
2023/12/02 09:31:08;;;;;;;38.35;18.90;;;;;;;-1.54;100.00;100473.13;6118295;23;20112;-81
2023/12/02 09:33:42;;;;;;;40.25;17.10;;;;;;;-1.52;100.00;100469.78;6095993;23;20068;-83
2023/12/02 09:36:37;;;;;;;36.92;16.05;;;;;;;-1.47;100.00;100469.06;6095097;23;20026;-81
2023/12/02 09:39:42;;;;;;;39.15;18.27;;;;;;;-1.40;100.00;100482.19;6070992;23;20018;-79
2023/12/02 09:42:09;;;;;;;38.90;18.30;;;;;;;-1.33;100.00;100473.03;6096000;23;20022;-82
2023/12/02 09:44:51;;;;;;;35.17;16.23;;;;;;;-1.48;100.00;100470.78;6124245;23;20045;-81
2023/12/02 09:47:20;;;;;;;35.50;18.05;;;;;;;-1.42;100.00;100476.16;6099628;23;20068;-82
2023/12/02 09:50:11;;;;;;;36.17;15.88;;;;;;;-1.43;100.00;100474.41;6123745;23;20133;-82
2023/12/02 09:53:13;;;;;;;42.45;18.42;;;;;;;-1.42;100.00;100472.69;6101206;23;20386;-81
2023/12/02 09:55:59;;;;;;;31.33;16.40;;;;;;;-1.43;100.00;100471.81;6147770;23;20238;-81
2023/12/02 09:58:38;;;;;;;35.53;18.02;;;;;;;-1.48;100.00;100473.34;6099201;23;20463;-82
2023/12/02 10:01:36;;;;;;;41.00;16.08;;;;;;;-1.52;100.00;100467.22;6097984;23;20026;-81
2023/12/02 10:04:23;;;;;;;38.88;19.00;;;;;;;-1.48;100.00;100473.34;6149846;23;20092;-81
2023/12/02 10:06:58;;;;;;;37.15;18.85;;;;;;;-1.48;100.00;100478.47;6122202;23;20060;-81
2023/12/02 10:09:53;;;;;;;39.17;17.95;;;;;;;-1.43;100.00;100468.41;6121665;23;20136;-81
2023/12/02 10:12:51;;;;;;;35.47;17.58;;;;;;;-1.49;100.00;100466.47;6053019;23;20083;-83
2023/12/02 10:15:20;;;;;;;41.15;17.33;;;;;;;-1.48;100.00;100468.22;6125144;23;20025;-82
2023/12/02 10:17:56;;;;;;;37.00;16.08;;;;;;;-1.35;100.00;100472.97;6099652;23;20053;-81
2023/12/02 10:20:35;;;;;;;40.65;19.42;;;;;;;-1.38;100.00;100470.31;6122615;23;20142;-82
2023/12/02 10:23:45;;;;;;;32.15;16.75;;;;;;;-1.32;100.00;100464.50;6123400;23;20090;-80
2023/12/02 10:26:33;;;;;;;34.45;16.15;;;;;;;-1.28;100.00;100461.22;6124923;23;20021;-81
2023/12/02 10:29:29;;;;;;;38.85;16.25;;;;;;;-1.21;100.00;100458.06;6125519;23;20025;-81
2023/12/02 10:32:22;;;;;;;38.50;17.67;;;;;;;-1.19;100.00;100459.00;6098876;23;20367;-82
2023/12/02 10:35:15;;;;;;;40.13;17.30;;;;;;;-1.17;100.00;100452.22;6099213;23;20026;-83
2023/12/02 10:37:47;;;;;;;38.85;18.65;;;;;;;-1.12;100.00;100454.97;6100533;23;20031;-82
2023/12/02 10:40:16;;;;;;;31.13;15.43;;;;;;;-1.16;100.00;100450.53;6122259;23;20022;-83
2023/12/02 10:42:50;;;;;;;38.25;17.77;;;;;;;-1.15;100.00;100459.97;6121944;23;20034;-83
2023/12/02 10:45:17;;;;;;;39.25;18.50;;;;;;;-1.13;100.00;100462.59;6148116;23;20021;-80
2023/12/02 10:47:56;;;;;;;33.13;16.38;;;;;;;-1.20;100.00;100453.78;6095956;23;20029;-80
2023/12/02 10:50:23;;;;;;;34.60;16.08;;;;;;;-1.18;100.00;100454.72;6121254;23;20108;-81
2023/12/02 10:53:22;;;;;;;43.92;17.63;;;;;;;-1.21;100.00;100455.50;6120729;23;20021;-82
2023/12/02 10:55:55;;;;;;;35.15;16.73;;;;;;;-1.16;100.00;100458.25;6120592;23;20021;-81
2023/12/02 10:58:22;;;;;;;40.00;18.63;;;;;;;-1.14;100.00;100458.28;6123230;23;20026;-83
2023/12/02 11:00:59;;;;;;;33.17;16.58;;;;;;;-1.15;100.00;100454.84;6098731;23;20447;-82
2023/12/02 11:03:51;;;;;;;36.92;17.90;;;;;;;-1.15;100.00;100459.09;6125287;23;20536;-82
2023/12/02 11:06:38;;;;;;;36.95;15.85;;;;;;;-1.12;100.00;100459.19;6099290;23;20033;-80
2023/12/02 11:09:26;;;;;;;39.45;19.50;;;;;;;-1.15;100.00;100461.69;6124464;23;20510;-82
2023/12/02 11:12:04;;;;;;;42.42;18.13;;;;;;;-1.26;100.00;100462.16;6097644;23;20756;-82